createdAt,value
2023-04-11T00:00:39.264Z,10.27
2023-04-11T00:03:07.424Z,8.40
2023-04-11T00:05:34.898Z,6.70
2023-04-11T00:08:02.369Z,6.53
2023-04-11T00:10:29.568Z,5.68
2023-04-11T00:12:57.525Z,7.38
2023-04-11T00:15:27.031Z,8.95
2023-04-11T00:17:57.965Z,8.18
2023-04-11T00:20:25.420Z,8.60
2023-04-11T00:22:54.294Z,7.88
2023-04-11T00:25:21.809Z,8.88
2023-04-11T00:27:49.025Z,6.22
2023-04-11T00:30:16.849Z,8.00
2023-04-11T00:32:46.736Z,8.55
2023-04-11T00:35:16.126Z,7.97
2023-04-11T00:37:44.468Z,6.38
2023-04-11T00:40:13.204Z,7.93
2023-04-11T00:42:40.992Z,6.35
2023-04-11T00:45:09.317Z,7.57
2023-04-11T00:47:36.938Z,7.80
2023-04-11T00:50:05.418Z,7.00
2023-04-11T00:52:34.682Z,6.10
2023-04-11T00:55:03.067Z,7.57
2023-04-11T00:57:30.950Z,6.25
2023-04-11T00:59:59.169Z,6.93
2023-04-11T01:02:26.866Z,8.40
2023-04-11T01:04:55.303Z,9.43
2023-04-11T01:07:24.716Z,9.38
2023-04-11T01:09:54.504Z,8.90
2023-04-11T01:12:22.688Z,9.43
2023-04-11T01:14:50.042Z,9.07
2023-04-11T01:17:17.837Z,8.35
2023-04-11T01:19:45.014Z,8.77
2023-04-11T01:22:15.342Z,6.95
2023-04-11T01:24:44.768Z,7.70
2023-04-11T01:27:12.071Z,6.88
2023-04-11T01:29:39.374Z,8.20
2023-04-11T01:32:06.996Z,8.65
2023-04-11T01:34:36.384Z,7.53
2023-04-11T01:37:04.282Z,8.45
2023-04-11T01:39:31.587Z,7.68
2023-04-11T01:42:02.937Z,7.38
2023-04-11T01:44:32.457Z,6.68
2023-04-11T01:47:00.290Z,8.35
2023-04-11T01:49:27.704Z,7.63
2023-04-11T01:51:55.006Z,7.65
2023-04-11T01:54:22.465Z,7.85
2023-04-11T01:56:50.274Z,7.78
2023-04-11T01:59:19.649Z,9.65
2023-04-11T02:01:47.080Z,8.10
2023-04-11T02:04:14.631Z,8.05
2023-04-11T02:06:42.119Z,8.50
2023-04-11T02:09:09.378Z,8.85
2023-04-11T02:11:36.829Z,8.88
2023-04-11T02:14:06.384Z,7.80
2023-04-11T02:16:56.264Z,8.55
2023-04-11T02:19:26.313Z,9.25
2023-04-11T02:21:53.588Z,8.68
2023-04-11T02:24:21.106Z,8.38
2023-04-11T02:26:48.395Z,8.32
2023-04-11T02:29:16.103Z,8.02
2023-04-11T02:31:43.487Z,8.05
2023-04-11T02:34:12.300Z,7.15
2023-04-11T02:36:39.610Z,8.30
2023-04-11T02:39:07.379Z,9.15
2023-04-11T02:41:34.610Z,8.00
2023-04-11T02:44:02.008Z,7.40
2023-04-11T02:46:29.482Z,8.07
2023-04-11T02:48:57.319Z,8.82
2023-04-11T02:51:27.283Z,8.68
2023-04-11T02:53:55.347Z,9.43
2023-04-11T02:56:22.877Z,7.85
2023-04-11T02:58:54.987Z,7.95
2023-04-11T03:01:25.629Z,8.65
2023-04-11T03:03:55.174Z,7.22
2023-04-11T03:06:28.296Z,7.85
2023-04-11T03:08:59.556Z,8.13
2023-04-11T03:11:27.110Z,7.55
2023-04-11T03:13:55.033Z,9.02
2023-04-11T03:16:22.681Z,8.60
2023-04-11T03:18:50.100Z,7.97
2023-04-11T03:21:17.528Z,8.65
2023-04-11T03:23:47.985Z,9.38
2023-04-11T03:26:16.248Z,7.75
2023-04-11T03:28:44.810Z,8.65
2023-04-11T03:31:16.026Z,8.73
2023-04-11T03:33:45.106Z,8.00
2023-04-11T03:36:12.530Z,9.50
2023-04-11T03:38:40.106Z,7.68
2023-04-11T03:41:09.750Z,9.52
2023-04-11T03:43:37.392Z,8.38
2023-04-11T03:46:05.904Z,9.80
2023-04-11T03:51:11.123Z,8.20
2023-04-11T03:53:45.559Z,8.13
2023-04-11T03:56:31.044Z,7.38
2023-04-11T03:58:58.852Z,8.98
2023-04-11T04:01:32.690Z,11.63
2023-04-11T04:04:05.182Z,9.95
2023-04-11T04:06:36.800Z,9.38
2023-04-11T04:09:05.081Z,9.88
2023-04-11T04:11:45.750Z,9.80
2023-04-11T04:14:13.747Z,10.07
2023-04-11T04:16:41.274Z,10.43
2023-04-11T04:19:08.825Z,9.65
2023-04-11T04:21:38.192Z,10.15
2023-04-11T04:24:06.399Z,10.50
2023-04-11T04:26:50.171Z,9.85
2023-04-11T04:29:39.604Z,10.20
2023-04-11T04:32:12.806Z,10.40
2023-04-11T04:34:55.319Z,10.60
2023-04-11T04:37:28.212Z,10.55
2023-04-11T04:40:13.296Z,10.27
2023-04-11T04:42:58.569Z,10.52
2023-04-11T04:48:04.587Z,8.77
2023-04-11T04:50:32.558Z,9.38
2023-04-11T04:52:59.808Z,10.05
2023-04-11T04:55:29.016Z,9.88
2023-04-11T04:57:57.948Z,11.57
2023-04-11T05:00:26.193Z,10.48
2023-04-11T05:05:30.257Z,10.38
2023-04-11T05:07:57.673Z,11.38
2023-04-11T05:10:25.203Z,10.55
2023-04-11T05:12:53.687Z,10.00
2023-04-11T05:15:23.606Z,9.55
2023-04-11T05:17:51.046Z,9.63
2023-04-11T05:20:18.842Z,12.00
2023-04-11T05:22:49.538Z,10.88
2023-04-11T05:25:18.333Z,10.57
2023-04-11T05:27:46.231Z,11.20
2023-04-11T05:30:14.337Z,8.68
2023-04-11T05:32:44.615Z,12.23
2023-04-11T05:35:12.101Z,12.85
2023-04-11T05:37:49.500Z,12.43
2023-04-11T05:40:16.899Z,12.40
2023-04-11T05:42:44.283Z,13.55
2023-04-11T05:45:12.060Z,11.68
2023-04-11T05:47:39.412Z,12.02
2023-04-11T05:50:10.765Z,9.73
2023-04-11T05:52:38.224Z,12.75
2023-04-11T05:55:07.495Z,11.45
2023-04-11T05:57:34.848Z,14.80
2023-04-11T06:00:02.387Z,12.75
2023-04-11T06:02:40.159Z,13.57
2023-04-11T06:05:11.980Z,11.77
2023-04-11T06:07:40.084Z,14.63
2023-04-11T06:10:08.616Z,12.10
2023-04-11T06:12:36.736Z,13.27
2023-04-11T06:15:04.937Z,14.07
2023-04-11T06:17:32.340Z,13.10
2023-04-11T06:19:59.622Z,12.25
2023-04-11T06:22:28.244Z,12.55
2023-04-11T06:24:55.782Z,10.70
2023-04-11T06:27:23.093Z,11.05
2023-04-11T06:29:50.647Z,8.07
2023-04-11T06:32:17.966Z,9.15
2023-04-11T06:34:45.574Z,7.05
2023-04-11T06:37:12.878Z,9.10
2023-04-11T06:39:41.758Z,11.02
2023-04-11T06:42:09.054Z,10.80
2023-04-11T06:44:36.366Z,11.48
2023-04-11T06:47:04.140Z,11.25
2023-04-11T06:49:31.592Z,10.65
2023-04-11T06:51:59.646Z,9.23
2023-04-11T06:54:26.924Z,10.70
2023-04-11T06:56:57.415Z,8.95
2023-04-11T06:59:24.971Z,10.35
2023-04-11T07:01:52.471Z,9.70
2023-04-11T07:04:20.107Z,8.52
2023-04-11T07:06:48.087Z,9.88
2023-04-11T07:09:15.532Z,8.30
2023-04-11T07:11:43.218Z,9.63
2023-04-11T07:14:12.023Z,9.88
2023-04-11T07:16:39.375Z,7.85
2023-04-11T07:19:06.799Z,7.82
2023-04-11T07:21:34.183Z,9.85
2023-04-11T07:24:01.675Z,9.35
2023-04-11T07:26:32.828Z,9.32
2023-04-11T07:29:00.966Z,9.82
2023-04-11T07:31:29.726Z,9.70
2023-04-11T07:33:57.168Z,10.05
2023-04-11T07:36:24.703Z,8.93
2023-04-11T07:38:52.452Z,7.07
2023-04-11T07:41:19.801Z,8.70
2023-04-11T07:43:47.209Z,10.18
2023-04-11T07:46:15.358Z,9.05
2023-04-11T07:48:44.484Z,9.85
2023-04-11T07:51:12.222Z,7.72
2023-04-11T07:53:39.606Z,9.68
2023-04-11T07:56:07.749Z,8.90
2023-04-11T07:58:35.081Z,8.02
2023-04-11T08:01:02.917Z,8.45
2023-04-11T08:03:30.518Z,7.68
2023-04-11T08:05:59.718Z,6.88
2023-04-11T08:08:26.946Z,7.40
2023-04-11T08:10:54.437Z,6.53
2023-04-11T08:13:21.756Z,6.38
2023-04-11T08:15:49.140Z,5.53
2023-04-11T08:18:16.635Z,6.25
2023-04-11T08:20:43.998Z,4.93
2023-04-11T08:23:12.611Z,7.60
2023-04-11T08:25:40.440Z,6.35
2023-04-11T08:28:10.107Z,5.93
2023-04-11T08:30:37.435Z,5.28
2023-04-11T08:33:04.837Z,6.78
2023-04-11T08:35:32.274Z,5.93
2023-04-11T08:37:59.550Z,7.15
2023-04-11T08:40:28.463Z,6.95
2023-04-11T08:43:00.261Z,4.60
2023-04-11T08:45:28.359Z,7.07
2023-04-11T08:47:55.981Z,6.10
2023-04-11T08:50:23.370Z,6.45
2023-04-11T08:52:53.188Z,5.05
2023-04-11T08:55:20.619Z,6.38
2023-04-11T08:57:49.345Z,5.00
2023-04-11T09:00:19.338Z,6.00
2023-04-11T09:02:58.157Z,4.82
2023-04-11T09:05:27.038Z,5.00
2023-04-11T09:07:55.197Z,5.50
2023-04-11T09:10:23.731Z,5.30
2023-04-11T09:12:53.239Z,5.90
2023-04-11T09:15:22.110Z,2.55
2023-04-11T09:17:50.183Z,6.32
2023-04-11T09:20:19.454Z,6.25
2023-04-11T09:22:50.837Z,7.30
2023-04-11T09:25:18.739Z,7.03
2023-04-11T09:27:46.208Z,6.30
2023-04-11T09:30:24.513Z,6.15
2023-04-11T09:32:56.216Z,5.95
2023-04-11T09:35:28.121Z,4.82
2023-04-11T09:37:56.882Z,5.90
2023-04-11T09:40:25.933Z,5.53
2023-04-11T09:43:00.962Z,5.28
2023-04-11T09:45:35.858Z,5.82
2023-04-11T09:48:08.719Z,4.97
2023-04-11T09:50:38.661Z,5.72
2023-04-11T09:53:06.755Z,5.43
2023-04-11T09:55:34.096Z,5.78
2023-04-11T09:58:01.588Z,4.40
2023-04-11T10:00:32.348Z,4.25
2023-04-11T10:03:00.019Z,5.63
2023-04-11T10:05:28.872Z,4.30
2023-04-11T10:08:03.413Z,4.53
2023-04-11T10:10:31.134Z,5.13
2023-04-11T10:12:58.695Z,5.45
2023-04-11T10:15:26.019Z,4.88
2023-04-11T10:18:10.315Z,5.85
2023-04-11T10:20:44.995Z,4.50
2023-04-11T10:23:13.231Z,4.88
2023-04-11T10:26:00.143Z,4.55
2023-04-11T10:28:32.776Z,3.53
2023-04-11T10:31:03.086Z,5.72
2023-04-11T10:33:32.425Z,5.25
2023-04-11T10:36:22.650Z,5.15
2023-04-11T10:38:51.626Z,5.72
2023-04-11T10:41:26.147Z,4.50
2023-04-11T10:44:13.892Z,5.15
2023-04-11T10:46:49.814Z,4.70
2023-04-11T10:49:36.719Z,5.60
2023-04-11T10:52:24.810Z,4.43
2023-04-11T10:54:52.914Z,4.97
2023-04-11T10:57:21.727Z,4.15
2023-04-11T11:00:09.602Z,4.10
2023-04-11T11:02:38.557Z,4.80
2023-04-11T11:05:21.337Z,4.68
2023-04-11T11:07:53.386Z,4.72
2023-04-11T11:10:41.143Z,4.45
2023-04-11T11:13:09.107Z,2.42
2023-04-11T11:15:40.293Z,2.75
2023-04-11T11:18:09.342Z,3.05
2023-04-11T11:20:38.279Z,2.80
2023-04-11T11:23:07.926Z,3.13
2023-04-11T11:25:35.747Z,4.65
2023-04-11T11:28:04.920Z,4.15
2023-04-11T11:30:32.846Z,3.33
2023-04-11T11:33:00.415Z,3.13
2023-04-11T11:35:29.070Z,4.10
2023-04-11T11:37:57.772Z,3.85
2023-04-11T11:40:25.047Z,4.10
2023-04-11T11:42:52.832Z,5.13
2023-04-11T11:45:21.816Z,4.00
2023-04-11T11:47:50.724Z,4.72
2023-04-11T11:50:26.713Z,4.40
2023-04-11T11:52:54.420Z,4.55
2023-04-11T11:55:33.329Z,3.25
2023-04-11T11:58:02.842Z,4.10
2023-04-11T12:00:35.393Z,4.03
2023-04-11T12:03:03.271Z,3.88
2023-04-11T12:05:32.646Z,4.72
2023-04-11T12:08:01.326Z,4.97
2023-04-11T12:10:38.226Z,3.60
2023-04-11T12:13:16.249Z,4.63
2023-04-11T12:15:46.731Z,4.63
2023-04-11T12:18:14.051Z,2.58
2023-04-11T12:20:41.662Z,4.22
2023-04-11T12:23:09.039Z,4.75
2023-04-11T12:25:38.029Z,3.92
2023-04-11T12:28:06.134Z,4.35
2023-04-11T12:30:33.506Z,4.05
2023-04-11T12:33:01.557Z,4.63
2023-04-11T12:35:29.254Z,4.00
2023-04-11T12:37:56.715Z,4.00
2023-04-11T12:40:24.409Z,3.45
2023-04-11T12:42:57.157Z,4.20
2023-04-11T12:45:25.174Z,4.25
2023-04-11T12:47:55.474Z,3.83
2023-04-11T12:50:24.026Z,4.72
2023-04-11T12:52:52.012Z,0.98
2023-04-11T12:55:19.596Z,4.00
2023-04-11T12:57:47.007Z,2.33
2023-04-11T13:00:17.548Z,4.43
2023-04-11T13:02:45.723Z,3.90
2023-04-11T13:05:18.182Z,3.45
2023-04-11T13:07:46.257Z,3.17
2023-04-11T13:10:14.483Z,3.17
2023-04-11T13:12:44.874Z,3.08
2023-04-11T13:15:13.697Z,3.30
2023-04-11T13:17:42.643Z,3.67
2023-04-11T13:20:11.329Z,3.63
2023-04-11T13:22:39.019Z,3.47
2023-04-11T13:25:07.432Z,3.00
2023-04-11T13:27:34.893Z,3.35
2023-04-11T13:30:04.910Z,2.95
2023-04-11T13:32:32.617Z,3.72
2023-04-11T13:35:01.448Z,3.50
2023-04-11T13:37:28.972Z,3.65
2023-04-11T13:39:59.005Z,3.45
2023-04-11T13:42:26.594Z,3.45
2023-04-11T13:44:54.389Z,4.07
2023-04-11T13:47:21.937Z,3.65
2023-04-11T13:49:49.217Z,3.78
2023-04-11T13:52:17.830Z,3.30
2023-04-11T13:54:45.114Z,2.75
2023-04-11T13:57:12.629Z,3.40
2023-04-11T13:59:42.305Z,4.00
2023-04-11T14:02:09.771Z,3.72
2023-04-11T14:04:37.100Z,3.03
2023-04-11T14:07:04.357Z,3.75
2023-04-11T14:09:33.021Z,3.78
2023-04-11T14:12:01.496Z,3.55
2023-04-11T14:14:28.851Z,3.25
2023-04-11T14:16:56.362Z,3.85
2023-04-11T14:19:25.000Z,3.70
2023-04-11T14:21:52.435Z,3.58
2023-04-11T14:24:22.301Z,3.65
2023-04-11T14:26:51.220Z,4.20
2023-04-11T14:29:19.850Z,3.33
2023-04-11T14:31:48.444Z,3.72
2023-04-11T14:34:16.638Z,3.40
2023-04-11T14:36:43.894Z,3.33
2023-04-11T14:39:11.179Z,3.03
2023-04-11T14:41:38.475Z,3.15
2023-04-11T14:44:07.311Z,3.78
2023-04-11T14:46:35.680Z,2.65
2023-04-11T14:49:03.645Z,3.45
2023-04-11T14:51:31.364Z,3.50
2023-04-11T14:53:59.985Z,3.58
2023-04-11T14:56:27.354Z,3.55
2023-04-11T14:58:54.955Z,3.80
2023-04-11T15:01:24.534Z,3.70
2023-04-11T15:03:52.223Z,3.60
2023-04-11T15:06:19.640Z,3.67
2023-04-11T15:08:48.479Z,3.92
2023-04-11T15:11:16.396Z,4.00
2023-04-11T15:13:47.978Z,3.83
2023-04-11T15:16:15.363Z,4.18
2023-04-11T15:18:44.240Z,3.47
2023-04-11T15:21:11.538Z,3.60
2023-04-11T15:23:39.052Z,4.03
2023-04-11T15:26:08.317Z,3.95
2023-04-11T15:28:37.303Z,3.40
2023-04-11T15:31:06.285Z,4.05
2023-04-11T15:33:34.172Z,4.10
2023-04-11T15:36:03.269Z,3.90
2023-04-11T15:38:30.834Z,3.33
2023-04-11T15:41:00.011Z,3.45
2023-04-11T15:43:27.675Z,3.90
2023-04-11T15:45:55.071Z,4.13
2023-04-11T15:48:25.582Z,4.32
2023-04-11T15:50:52.941Z,3.60
2023-04-11T15:53:21.891Z,3.35
2023-04-11T15:55:49.520Z,3.95
2023-04-11T15:58:17.095Z,4.10
2023-04-11T16:00:44.893Z,4.07
2023-04-11T16:03:12.420Z,4.93
2023-04-11T16:05:43.203Z,4.00
2023-04-11T16:08:10.804Z,4.10
2023-04-11T16:10:39.605Z,3.70
2023-04-11T16:13:06.981Z,4.15
2023-04-11T16:15:34.409Z,4.20
2023-04-11T16:18:02.014Z,4.70
2023-04-11T16:20:29.351Z,4.78
2023-04-11T16:22:56.783Z,4.65
2023-04-11T16:25:24.153Z,4.25
2023-04-11T16:27:53.108Z,3.70
2023-04-11T16:30:20.595Z,4.28
2023-04-11T16:32:47.905Z,4.18
2023-04-11T16:35:15.218Z,5.20
2023-04-11T16:37:42.613Z,4.80
2023-04-11T16:40:13.154Z,4.95
2023-04-11T16:42:40.589Z,4.65
2023-04-11T16:45:10.941Z,4.90
2023-04-11T16:47:41.181Z,4.70
2023-04-11T16:50:09.543Z,5.25
2023-04-11T16:52:36.891Z,5.32
2023-04-11T16:55:05.006Z,5.72
2023-04-11T16:57:33.499Z,4.82
2023-04-11T17:00:07.219Z,5.32
2023-04-11T17:02:36.129Z,5.20
2023-04-11T17:05:04.294Z,4.50
2023-04-11T17:07:33.405Z,5.53
2023-04-11T17:10:00.887Z,5.57
2023-04-11T17:12:28.408Z,3.85
2023-04-11T17:14:56.199Z,5.63
2023-04-11T17:17:23.629Z,4.90
2023-04-11T17:19:52.581Z,6.13
2023-04-11T17:22:20.167Z,6.20
2023-04-11T17:24:47.463Z,5.78
2023-04-11T17:27:14.916Z,6.25
2023-04-11T17:29:42.384Z,5.32
2023-04-11T17:32:09.582Z,5.85
2023-04-11T17:34:37.081Z,5.50
2023-04-11T17:37:06.642Z,5.95
2023-04-11T17:39:33.885Z,6.50
2023-04-11T17:42:01.560Z,6.45
2023-04-11T17:44:28.884Z,4.55
2023-04-11T17:46:56.661Z,6.13
2023-04-11T17:49:25.087Z,5.93
2023-04-11T17:51:59.049Z,6.25
2023-04-11T17:54:28.710Z,5.82
2023-04-11T17:56:56.505Z,6.15
2023-04-11T17:59:25.532Z,5.97
2023-04-11T18:01:56.218Z,6.80
2023-04-11T18:04:23.985Z,6.97
2023-04-11T18:06:51.489Z,7.65
2023-04-11T18:09:18.755Z,6.57
2023-04-11T18:11:47.455Z,6.68
2023-04-11T18:14:14.883Z,6.45
2023-04-11T18:16:42.145Z,7.22
2023-04-11T18:19:09.560Z,7.32
2023-04-11T18:21:38.725Z,7.88
2023-04-11T18:24:06.755Z,6.68
2023-04-11T18:26:35.550Z,7.25
2023-04-11T18:29:04.535Z,7.35
2023-04-11T18:31:35.201Z,6.82
2023-04-11T18:34:03.548Z,6.90
2023-04-11T18:36:31.024Z,7.57
2023-04-11T18:38:58.405Z,7.72
2023-04-11T18:41:26.113Z,6.97
2023-04-11T18:43:53.493Z,7.53
2023-04-11T18:46:22.575Z,7.55
2023-04-11T18:48:50.013Z,8.32
2023-04-11T18:51:17.545Z,8.07
2023-04-11T18:53:45.273Z,8.63
2023-04-11T18:56:12.505Z,8.23
2023-04-11T18:58:45.552Z,7.63
2023-04-11T19:01:16.921Z,7.95
2023-04-11T19:03:46.827Z,7.93
2023-04-11T19:06:14.325Z,8.18
2023-04-11T19:08:41.737Z,7.93
2023-04-11T19:11:09.067Z,7.93
2023-04-11T19:13:36.744Z,7.15
2023-04-11T19:16:04.510Z,7.57
2023-04-11T19:18:31.986Z,7.50
2023-04-11T19:21:01.452Z,7.00
2023-04-11T19:23:28.991Z,7.75
2023-04-11T19:25:56.827Z,8.35
2023-04-11T19:28:24.147Z,7.68
2023-04-11T19:30:51.489Z,6.43
2023-04-11T19:33:18.931Z,8.45
2023-04-11T19:35:46.606Z,7.30
2023-04-11T19:38:15.413Z,7.03
2023-04-11T19:40:42.796Z,7.40
2023-04-11T19:43:10.099Z,7.40
2023-04-11T19:45:37.430Z,8.07
2023-04-11T19:48:05.216Z,7.82
2023-04-11T19:50:32.736Z,8.18
2023-04-11T19:53:01.680Z,7.95
2023-04-11T19:55:33.240Z,6.47
2023-04-11T19:58:03.100Z,7.60
2023-04-11T20:00:36.295Z,7.78
2023-04-11T20:03:10.625Z,8.02
2023-04-11T20:05:39.251Z,8.85
2023-04-11T20:08:10.929Z,7.35
2023-04-11T20:10:41.971Z,9.02
2023-04-11T20:13:12.172Z,7.07
2023-04-11T20:15:41.864Z,7.22
2023-04-11T20:18:12.008Z,8.07
2023-04-11T20:20:39.317Z,8.07
2023-04-11T20:23:07.322Z,9.00
2023-04-11T20:25:35.132Z,7.90
2023-04-11T20:28:04.031Z,7.13
2023-04-11T20:30:32.520Z,7.05
2023-04-11T20:33:00.076Z,7.88
2023-04-11T20:35:27.717Z,8.45
2023-04-11T20:37:56.233Z,8.18
2023-04-11T20:40:24.012Z,7.82
2023-04-11T20:42:51.228Z,7.57
2023-04-11T20:45:25.894Z,7.18
2023-04-11T20:47:53.671Z,8.32
2023-04-11T20:50:21.652Z,7.78
2023-04-11T20:52:53.178Z,8.48
2023-04-11T20:55:21.119Z,8.48
2023-04-11T20:57:48.689Z,8.52
2023-04-11T21:00:17.609Z,8.30
2023-04-11T21:02:49.957Z,7.78
2023-04-11T21:05:21.472Z,5.70
2023-04-11T21:07:50.218Z,6.78
2023-04-11T21:10:19.340Z,7.07
2023-04-11T21:12:51.931Z,6.53
2023-04-11T21:15:20.135Z,7.43
2023-04-11T21:17:50.391Z,7.50
2023-04-11T21:20:18.640Z,6.43
2023-04-11T21:22:47.165Z,6.38
2023-04-11T21:25:15.915Z,7.60
2023-04-11T21:27:43.352Z,6.50
2023-04-11T21:30:11.577Z,6.47
2023-04-11T21:32:39.709Z,6.65
2023-04-11T21:35:09.944Z,6.22
2023-04-11T21:37:37.403Z,6.68
2023-04-11T21:40:05.681Z,7.03
2023-04-11T21:42:33.071Z,7.57
2023-04-11T21:45:00.543Z,7.95
2023-04-11T21:47:27.861Z,7.85
2023-04-11T21:49:55.061Z,7.72
2023-04-11T21:52:23.739Z,8.35
2023-04-11T21:54:51.098Z,6.18
2023-04-11T21:57:18.330Z,7.53
2023-04-11T21:59:46.859Z,8.55
2023-04-11T22:02:14.644Z,8.02
2023-04-11T22:04:55.794Z,7.47
2023-04-11T22:07:50.305Z,8.05
2023-04-11T22:10:23.344Z,6.95
2023-04-11T22:12:54.041Z,6.05
2023-04-11T22:15:21.680Z,7.20
2023-04-11T22:17:51.268Z,7.28
2023-04-11T22:20:20.074Z,6.47
2023-04-11T22:22:48.896Z,5.90
2023-04-11T22:25:18.414Z,6.60
2023-04-11T22:27:45.817Z,7.60
2023-04-11T22:30:14.869Z,7.18
2023-04-11T22:32:42.340Z,6.75
2023-04-11T22:35:11.106Z,6.20
2023-04-11T22:37:38.367Z,6.25
2023-04-11T22:40:11.565Z,8.88
2023-04-11T22:42:40.482Z,6.07
2023-04-11T22:45:08.771Z,7.20
2023-04-11T22:47:38.210Z,7.85
2023-04-11T22:50:06.270Z,7.97
2023-04-11T22:52:35.623Z,7.57
2023-04-11T22:55:04.761Z,9.73
2023-04-11T22:57:35.157Z,6.95
2023-04-11T23:00:04.756Z,8.00
2023-04-11T23:02:32.351Z,7.38
2023-04-11T23:05:02.276Z,7.45
2023-04-11T23:07:32.907Z,8.15
2023-04-11T23:10:01.227Z,6.63
2023-04-11T23:12:30.094Z,7.10
2023-04-11T23:15:02.421Z,7.60
2023-04-11T23:17:30.423Z,7.68
2023-04-11T23:19:59.460Z,7.25
2023-04-11T23:22:27.613Z,6.45
2023-04-11T23:24:55.035Z,6.85
2023-04-11T23:27:22.973Z,7.40
2023-04-11T23:29:50.736Z,7.18
2023-04-11T23:32:19.871Z,6.95
2023-04-11T23:34:47.151Z,7.25
2023-04-11T23:37:14.718Z,6.88
2023-04-11T23:39:42.239Z,7.72
2023-04-11T23:42:09.558Z,6.97
2023-04-11T23:44:36.770Z,6.82
2023-04-11T23:47:03.956Z,7.38
2023-04-11T23:49:32.689Z,7.40
2023-04-11T23:51:59.863Z,6.95
2023-04-11T23:54:30.451Z,6.68
2023-04-11T23:56:58.172Z,8.60
2023-04-11T23:59:25.475Z,6.68
